Time;durP1;ratioP1;P1;durP2;ratioP2;P2;SDS_P1;SDS_P2;PMS_P1;PMS_P2;Temp;Humidity;BMP_temperature;BMP_pressure;BME280_temperature;BME280_humidity;BME280_pressure;Samples;Min_cycle;Max_cycle;Signal;HPM_P1;HPM_P2
2023/09/18 00:00:57;;;;;;;;;;;;;;;18.07;100.00;100585.91;4961614;28;20021;-71
2023/09/18 00:03:24;;;;;;;;;;;;;;;18.09;100.00;100578.69;4976402;28;19925;-71
2023/09/18 00:05:52;;;;;;;;;;;;;;;18.08;100.00;100571.72;4975573;28;19914;-71
2023/09/18 00:08:19;;;;;;;;;;;;;;;18.09;100.00;100573.38;4975884;28;19925;-71
2023/09/18 00:10:49;;;;;;;;;;;;;;;18.11;100.00;100565.31;4975952;28;19932;-71
2023/09/18 00:13:14;;;;;;;;;;;;;;;18.12;100.00;100556.41;4975955;28;20185;-71
2023/09/18 00:15:40;;;;;;;;;;;;;;;18.12;100.00;100567.88;4975583;28;19922;-71
2023/09/18 00:18:06;;;;;;;;;;;;;;;18.12;100.00;100559.91;4969591;28;19918;-71
2023/09/18 00:20:31;;;;;;;;;;;;;;;18.11;100.00;100552.06;4971793;28;20265;-71
2023/09/18 00:22:56;;;;;;;;;;;;;;;18.11;100.00;100547.59;4973846;28;19910;-71
2023/09/18 00:25:22;;;;;;;;;;;;;;;18.11;100.00;100544.13;4956892;29;19907;-71
2023/09/18 00:27:48;;;;;;;;;;;;;;;18.10;100.00;100537.13;4956729;28;19911;-71
2023/09/18 00:30:13;;;;;;;;;;;;;;;18.10;100.00;100540.63;4956833;29;20074;-71
2023/09/18 00:32:38;;;;;;;;;;;;;;;18.09;100.00;100530.16;4956237;28;20148;-71
2023/09/18 00:35:04;;;;;;;;;;;;;;;18.09;100.00;100530.16;4958196;28;19914;-71
2023/09/18 00:37:29;;;;;;;;;;;;;;;18.09;100.00;100517.75;4976261;28;19924;-71
2023/09/18 00:39:54;;;;;;;;;;;;;;;18.10;100.00;100510.63;4975390;28;19914;-71
2023/09/18 00:42:22;;;;;;;;;;;;;;;18.11;100.00;100507.03;4974747;28;19921;-71
2023/09/18 00:44:47;;;;;;;;;;;;;;;18.11;100.00;100499.91;4958895;29;19921;-71
2023/09/18 00:47:14;;;;;;;;;;;;;;;18.10;100.00;100477.03;4960727;28;19918;-71
2023/09/18 00:49:40;;;;;;;;;;;;;;;18.10;100.00;100471.75;4960170;29;19919;-71
2023/09/18 00:52:06;;;;;;;;;;;;;;;18.12;100.00;100455.69;4960516;29;19921;-71
2023/09/18 00:54:33;;;;;;;;;;;;;;;18.14;100.00;100436.09;4958894;28;20108;-71
2023/09/18 00:56:59;;;;;;;;;;;;;;;18.18;100.00;100432.22;4959964;29;19979;-71
2023/09/18 00:59:24;;;;;;;;;;;;;;;18.19;100.00;100427.75;4960381;28;20120;-71
2023/09/18 01:01:50;;;;;;;;;;;;;;;18.23;100.00;100437.16;4960035;29;20086;-71
2023/09/18 01:04:19;;;;;;;;;;;;;;;18.22;100.00;100433.66;4960507;28;19941;-71
2023/09/18 01:06:44;;;;;;;;;;;;;;;18.21;100.00;100433.81;4959484;29;19985;-71
2023/09/18 01:09:12;;;;;;;;;;;;;;;18.20;100.00;100430.28;4973132;28;20098;-71
2023/09/18 01:12:07;;;;;;;;;;;;;;;18.18;100.00;100432.22;4978709;28;19914;-71
2023/09/18 01:14:52;;;;;;;;;;;;;;;18.18;100.00;100424.25;4971792;28;19994;-71
2023/09/18 01:17:18;;;;;;;;;;;;;;;18.18;100.00;100432.22;4979240;28;20120;-71
2023/09/18 01:19:45;;;;;;;;;;;;;;;18.16;100.00;100439.44;4978918;28;19948;-71
2023/09/18 01:22:11;;;;;;;;;;;;;;;18.16;100.00;100438.63;4979451;28;20112;-71
2023/09/18 01:24:37;;;;;;;;;;;;;;;18.15;100.00;100439.56;4978277;28;20278;-71
2023/09/18 01:27:06;;;;;;;;;;;;;;;18.14;100.00;100430.78;4979213;28;20208;-71
2023/09/18 01:29:31;;;;;;;;;;;;;;;18.13;100.00;100439.69;4978615;28;19932;-71
2023/09/18 01:31:58;;;;;;;;;;;;;;;18.12;100.00;100443.31;4978428;28;20292;-71
2023/09/18 01:34:25;;;;;;;;;;;;;;;18.13;100.00;100441.50;4978583;28;19918;-71
2023/09/18 01:36:51;;;;;;;;;;;;;;;18.13;100.00;100437.03;4978416;28;20405;-71
2023/09/18 01:39:17;;;;;;;;;;;;;;;18.14;100.00;100429.94;4965024;28;20144;-71
2023/09/18 01:41:43;;;;;;;;;;;;;;;18.14;100.00;100422.84;4959087;29;20420;-71
2023/09/18 01:44:08;;;;;;;;;;;;;;;18.13;100.00;100417.66;4959808;28;19918;-71
2023/09/18 01:46:36;;;;;;;;;;;;;;;18.13;100.00;100422.94;4959385;29;20244;-71
2023/09/18 01:49:01;;;;;;;;;;;;;;;18.12;100.00;100424.75;4957794;28;20267;-71
2023/09/18 01:51:26;;;;;;;;;;;;;;;18.13;100.00;100430.91;4959427;28;20205;-71
2023/09/18 01:53:53;;;;;;;;;;;;;;;18.12;100.00;100427.41;4959147;28;20145;-71
2023/09/18 01:56:18;;;;;;;;;;;;;;;18.11;100.00;100428.38;4959098;28;20153;-71
2023/09/18 01:58:43;;;;;;;;;;;;;;;18.11;100.00;100432.84;4958697;28;20306;-71
2023/09/18 02:01:08;;;;;;;;;;;;;;;18.10;100.00;100439.94;4959601;29;20279;-71
2023/09/18 02:03:34;;;;;;;;;;;;;;;18.10;100.00;100447.03;4959284;28;20224;-71
2023/09/18 02:05:59;;;;;;;;;;;;;;;18.09;100.00;100448.84;4958966;29;20172;-71
2023/09/18 02:08:25;;;;;;;;;;;;;;;18.10;100.00;100447.03;4961091;28;19918;-71
2023/09/18 02:10:50;;;;;;;;;;;;;;;18.09;100.00;100440.91;4958417;28;19919;-71
2023/09/18 02:13:17;;;;;;;;;;;;;;;18.11;100.00;100440.78;4963121;28;19954;-71
2023/09/18 02:15:43;;;;;;;;;;;;;;;18.11;100.00;100452.22;4960862;28;19918;-71
2023/09/18 02:18:08;;;;;;;;;;;;;;;18.11;100.00;100449.56;4958990;28;20134;-71
2023/09/18 02:20:40;;;;;;;;;;;;;;;18.11;100.00;100436.31;4959534;28;19922;-71
2023/09/18 02:23:05;;;;;;;;;;;;;;;18.13;100.00;100437.03;4978178;28;19913;-71
2023/09/18 02:25:30;;;;;;;;;;;;;;;18.13;100.00;100436.19;4967036;28;19950;-71
2023/09/18 02:27:55;;;;;;;;;;;;;;;18.13;100.00;100417.66;4976792;28;19984;-71
2023/09/18 02:30:21;;;;;;;;;;;;;;;18.15;100.00;100402.47;4967151;28;19921;-71
2023/09/18 02:32:46;;;;;;;;;;;;;;;18.15;100.00;100405.94;4977648;28;19914;-71
2023/09/18 02:35:12;;;;;;;;;;;;;;;18.14;100.00;100396.34;4963181;28;19918;-71
2023/09/18 02:37:37;;;;;;;;;;;;;;;18.15;100.00;100390.03;4958814;28;19925;-71
2023/09/18 02:40:02;;;;;;;;;;;;;;;18.17;100.00;100381.97;4961335;28;20245;-71
2023/09/18 02:42:28;;;;;;;;;;;;;;;18.18;100.00;100378.38;4957117;28;20087;-71
2023/09/18 02:44:53;;;;;;;;;;;;;;;18.18;100.00;100367.78;4972953;28;19924;-71
2023/09/18 02:47:18;;;;;;;;;;;;;;;18.16;100.00;100365.25;4963910;28;19914;-71
2023/09/18 02:49:43;;;;;;;;;;;;;;;18.17;100.00;100348.41;4958061;28;20290;-72
2023/09/18 02:52:09;;;;;;;;;;;;;;;18.16;100.00;100336.09;4958894;29;19914;-72
2023/09/18 02:54:34;;;;;;;;;;;;;;;18.17;100.00;100316.59;4958351;28;19953;-72
2023/09/18 02:56:59;;;;;;;;;;;;;;;18.17;100.00;100308.66;4958129;29;19917;-72
2023/09/18 02:59:24;;;;;;;;;;;;;;;18.17;100.00;100300.69;4958424;28;19918;-72
2023/09/18 03:01:50;;;;;;;;;;;;;;;18.17;100.00;100289.22;4957541;29;20135;-72
2023/09/18 03:04:15;;;;;;;;;;;;;;;18.18;100.00;100293.56;4958340;28;20095;-72
2023/09/18 03:06:41;;;;;;;;;;;;;;;18.17;100.00;100313.94;4956525;28;19914;-72
2023/09/18 03:09:06;;;;;;;;;;;;;;;18.16;100.00;100309.59;4970075;28;19914;-72
2023/09/18 03:11:31;;;;;;;;;;;;;;;18.17;100.00;100294.53;4977530;28;20247;-72
2023/09/18 03:13:57;;;;;;;;;;;;;;;18.16;100.00;100295.50;4976855;28;19981;-72
2023/09/18 03:16:22;;;;;;;;;;;;;;;18.16;100.00;100298.16;4977630;28;20145;-72
2023/09/18 03:18:48;;;;;;;;;;;;;;;18.17;100.00;100291.88;4975070;28;19914;-72
2023/09/18 03:21:13;;;;;;;;;;;;;;;18.17;100.00;100292.75;4977222;28;20177;-72
2023/09/18 03:23:38;;;;;;;;;;;;;;;18.17;100.00;100318.38;4964176;28;19918;-72
2023/09/18 03:26:04;;;;;;;;;;;;;;;18.16;100.00;100357.31;4957898;29;20008;-72
2023/09/18 03:28:29;;;;;;;;;;;;;;;18.16;100.00;100354.66;4957950;28;19918;-72
2023/09/18 03:30:54;;;;;;;;;;;;;;;18.17;100.00;100345.75;4956870;29;20009;-73
2023/09/18 03:33:20;;;;;;;;;;;;;;;18.18;100.00;100349.22;4957637;29;19921;-74
2023/09/18 03:35:47;;;;;;;;;;;;;;;18.19;100.00;100357.06;4957504;28;19930;-74
2023/09/18 03:38:12;;;;;;;;;;;;;;;18.19;100.00;100351.75;4962915;28;20213;-74
2023/09/18 03:40:37;;;;;;;;;;;;;;;18.20;100.00;100345.47;4976047;28;19913;-74
2023/09/18 03:43:02;;;;;;;;;;;;;;;18.21;100.00;100355.13;4976902;28;19918;-74
2023/09/18 03:45:28;;;;;;;;;;;;;;;18.24;100.00;100348.72;4976434;28;19914;-74
2023/09/18 03:47:53;;;;;;;;;;;;;;;18.25;100.00;100361.03;4976240;28;20280;-74
2023/09/18 03:50:19;;;;;;;;;;;;;;;18.26;100.00;100344.13;4976538;28;19957;-74
2023/09/18 03:52:44;;;;;;;;;;;;;;;18.28;100.00;100318.38;4976216;28;19956;-74
2023/09/18 03:55:09;;;;;;;;;;;;;;;18.29;100.00;100322.69;4976659;28;19917;-74
2023/09/18 03:57:36;;;;;;;;;;;;;;;18.30;100.00;100348.25;4976229;28;20206;-74
2023/09/18 04:00:02;;;;;;;;;;;;;;;18.30;100.00;100368.59;4976217;28;19918;-74
2023/09/18 04:02:27;;;;;;;;;;;;;;;18.30;100.00;100316.44;4976599;28;19973;-74
2023/09/18 04:04:53;;;;;;;;;;;;;;;18.30;100.00;100289.94;4975774;28;20163;-74
2023/09/18 04:07:19;;;;;;;;;;;;;;;18.31;100.00;100272.22;4976380;28;19937;-74
2023/09/18 04:09:44;;;;;;;;;;;;;;;18.31;100.00;100257.13;4976292;28;20194;-74
2023/09/18 04:12:10;;;;;;;;;;;;;;;18.31;100.00;100265.09;4976763;28;20198;-74
2023/09/18 04:14:35;;;;;;;;;;;;;;;18.31;100.00;100261.59;4976056;28;19941;-74
2023/09/18 04:17:01;;;;;;;;;;;;;;;18.32;100.00;100269.44;4976142;28;19914;-74
2023/09/18 04:19:26;;;;;;;;;;;;;;;18.33;100.00;100243.75;4980111;28;19925;-74
2023/09/18 04:21:52;;;;;;;;;;;;;;;18.32;100.00;100242.06;4979906;28;20213;-74
2023/09/18 04:24:17;;;;;;;;;;;;;;;18.32;100.00;100248.22;4962991;28;20244;-74
2023/09/18 04:26:43;;;;;;;;;;;;;;;18.31;100.00;100251.84;4960462;29;19949;-74
2023/09/18 04:29:08;;;;;;;;;;;;;;;18.32;100.00;100244.72;4960869;28;19949;-74
2023/09/18 04:31:33;;;;;;;;;;;;;;;18.32;100.00;100256.19;4960685;29;20009;-74
2023/09/18 04:33:59;;;;;;;;;;;;;;;18.32;100.00;100257.97;4972973;28;19992;-74
2023/09/18 04:36:24;;;;;;;;;;;;;;;18.32;100.00;100263.28;4979727;28;19910;-74
2023/09/18 04:38:50;;;;;;;;;;;;;;;18.32;100.00;100260.63;4970959;28;19949;-74
2023/09/18 04:41:16;;;;;;;;;;;;;;;18.32;100.00;100258.84;4977699;28;19998;-73
2023/09/18 04:43:42;;;;;;;;;;;;;;;18.31;100.00;100262.44;4976217;28;20111;-74
2023/09/18 04:46:07;;;;;;;;;;;;;;;18.32;100.00;100264.13;4961217;28;20098;-74
2023/09/18 04:48:33;;;;;;;;;;;;;;;18.31;100.00;100265.09;4960625;29;19918;-74
2023/09/18 04:50:58;;;;;;;;;;;;;;;18.33;100.00;100280.88;4960221;28;19925;-74
2023/09/18 04:53:24;;;;;;;;;;;;;;;18.32;100.00;100268.56;4960951;28;19914;-74
2023/09/18 04:55:50;;;;;;;;;;;;;;;18.32;100.00;100271.22;4963278;28;19980;-74
2023/09/18 04:58:15;;;;;;;;;;;;;;;18.33;100.00;100259.66;4968695;28;19918;-74
2023/09/18 05:00:41;;;;;;;;;;;;;;;18.33;100.00;100244.59;4974065;28;19920;-73
2023/09/18 05:03:08;;;;;;;;;;;;;;;18.33;100.00;100246.41;4980274;28;19918;-74
2023/09/18 05:05:33;;;;;;;;;;;;;;;18.32;100.00;100234.97;4979587;28;19905;-74
2023/09/18 05:07:58;;;;;;;;;;;;;;;18.33;100.00;100233.16;4979203;28;19965;-74
2023/09/18 05:10:24;;;;;;;;;;;;;;;18.33;100.00;100225.22;4979189;28;19922;-74
2023/09/18 05:12:50;;;;;;;;;;;;;;;18.33;100.00;100222.56;4978800;28;19910;-74
2023/09/18 05:15:16;;;;;;;;;;;;;;;18.33;100.00;100227.88;4979088;28;20256;-74
2023/09/18 05:17:52;;;;;;;;;;;;;;;18.33;100.00;100226.03;4978361;28;19925;-74
2023/09/18 05:20:18;;;;;;;;;;;;;;;18.32;100.00;100227.03;4968648;28;20180;-74
2023/09/18 05:22:43;;;;;;;;;;;;;;;18.34;100.00;100221.59;4978671;28;19918;-74
2023/09/18 05:25:09;;;;;;;;;;;;;;;18.34;100.00;100224.25;4976219;28;19925;-74
2023/09/18 05:27:35;;;;;;;;;;;;;;;18.34;100.00;100218.97;4977927;28;19957;-74
2023/09/18 05:30:01;;;;;;;;;;;;;;;18.34;100.00;100229.56;4968714;28;20184;-74
2023/09/18 05:32:26;;;;;;;;;;;;;;;18.34;100.00;100219.78;4973647;28;19988;-74
2023/09/18 05:34:51;;;;;;;;;;;;;;;18.34;100.00;100211.00;4978096;28;20295;-74
2023/09/18 05:37:17;;;;;;;;;;;;;;;18.35;100.00;100207.38;4978998;28;19914;-73
2023/09/18 05:39:42;;;;;;;;;;;;;;;18.34;100.00;100206.53;4976241;28;20262;-74
2023/09/18 05:42:07;;;;;;;;;;;;;;;18.36;100.00;100203.75;4979152;28;19976;-74
2023/09/18 05:44:33;;;;;;;;;;;;;;;18.36;100.00;100204.59;4974809;28;19955;-74
2023/09/18 05:46:58;;;;;;;;;;;;;;;18.36;100.00;100206.41;4978210;28;19918;-74
2023/09/18 05:49:23;;;;;;;;;;;;;;;18.36;100.00;100199.28;4978376;28;19964;-74
2023/09/18 05:51:49;;;;;;;;;;;;;;;18.37;100.00;100198.34;4974459;28;19922;-74
2023/09/18 05:54:14;;;;;;;;;;;;;;;18.38;100.00;100204.47;4972353;28;20484;-74
2023/09/18 05:56:39;;;;;;;;;;;;;;;18.39;100.00;100206.13;4970152;28;20078;-74
2023/09/18 05:59:05;;;;;;;;;;;;;;;18.38;100.00;100220.38;4970259;28;20226;-74
2023/09/18 06:01:31;;;;;;;;;;;;;;;18.38;100.00;100215.06;4974459;28;20165;-74
2023/09/18 06:03:56;;;;;;;;;;;;;;;18.40;100.00;100227.22;4972085;28;19918;-74
2023/09/18 06:06:21;;;;;;;;;;;;;;;18.40;100.00;100234.34;4968087;28;19910;-74
2023/09/18 06:08:46;;;;;;;;;;;;;;;18.40;100.00;100229.88;4976212;28;19914;-74
2023/09/18 06:11:12;;;;;;;;;;;;;;;18.41;100.00;100241.34;4970949;28;19933;-74
2023/09/18 06:13:37;;;;;;;;;;;;;;;18.41;100.00;100234.22;4971291;28;20110;-74
2023/09/18 06:16:07;;;;;;;;;;;;;;;18.42;100.00;100237.69;4968576;28;19953;-74
2023/09/18 06:18:33;;;;;;;;;;;;;;;18.42;100.00;100241.19;4972810;28;19906;-74
2023/09/18 06:20:58;;;;;;;;;;;;;;;18.41;100.00;100244.00;4975098;28;19924;-73
2023/09/18 06:23:23;;;;;;;;;;;;;;;18.40;100.00;100240.47;4977617;28;19918;-74
2023/09/18 06:25:55;;;;;;;;;;;;;;;18.41;100.00;100236.03;4975763;28;19918;-74
2023/09/18 06:28:20;;;;;;;;;;;;;;;18.39;100.00;100230.00;4974380;28;20260;-74
2023/09/18 06:30:45;;;;;;;;;;;;;;;18.38;100.00;100230.97;4971493;28;19925;-74
2023/09/18 06:33:12;;;;;;;;;;;;;;;18.39;100.00;100228.22;4974696;28;19914;-74
2023/09/18 06:35:38;;;;;;;;;;;;;;;18.40;100.00;100232.53;4977038;28;19973;-74
2023/09/18 06:38:05;;;;;;;;;;;;;;;18.38;100.00;100220.38;4953546;28;20133;-74
2023/09/18 06:40:30;;;;;;;;;;;;;;;18.37;100.00;100216.03;4960473;28;19922;-74
2023/09/18 06:43:00;;;;;;;;;;;;;;;18.38;100.00;100217.72;4965526;28;19917;-74
2023/09/18 06:45:25;;;;;;;;;;;;;;;18.38;100.00;100215.91;4970142;28;20206;-74
2023/09/18 06:47:50;;;;;;;;;;;;;;;18.40;100.00;100215.78;4975609;28;20071;-74
2023/09/18 06:50:18;;;;;;;;;;;;;;;18.37;100.00;100218.69;4974343;28;20113;-74
2023/09/18 06:52:43;;;;;;;;;;;;;;;18.37;100.00;100230.16;4961291;28;19913;-74
2023/09/18 06:55:09;;;;;;;;;;;;;;;18.37;100.00;100227.50;4965155;28;20263;-74
2023/09/18 06:57:34;;;;;;;;;;;;;;;18.37;100.00;100227.50;4969910;28;19918;-74
2023/09/18 06:59:59;;;;;;;;;;;;;;;18.35;100.00;100231.22;4966974;28;19919;-73
2023/09/18 07:02:25;;;;;;;;;;;;;;;18.35;100.00;100233.88;4970436;28;19914;-73
2023/09/18 07:04:51;;;;;;;;;;;;;;;18.34;100.00;100225.09;4973110;28;19921;-74
2023/09/18 07:07:23;;;;;;;;;;;;;;;18.32;100.00;100229.69;4968091;28;19969;-74
2023/09/18 07:09:49;;;;;;;;;;;;;;;18.33;100.00;100233.16;4971199;28;19962;-74
2023/09/18 07:12:14;;;;;;;;;;;;;;;18.32;100.00;100242.06;4970830;28;19981;-74
2023/09/18 07:14:39;;;;;;;;;;;;;;;18.30;100.00;100238.72;4968233;28;20233;-74
2023/09/18 07:17:05;;;;;;;;;;;;;;;18.32;100.00;100231.47;4967774;28;19917;-74
2023/09/18 07:19:30;;;;;;;;;;;;;;;18.33;100.00;100241.13;4970030;28;20805;-74
2023/09/18 07:21:55;;;;;;;;;;;;;;;18.31;100.00;100243.88;4964444;28;19918;-74
2023/09/18 07:24:20;;;;;;;;;;;;;;;18.31;100.00;100241.25;4966317;28;20183;-74
2023/09/18 07:26:47;;;;;;;;;;;;;;;18.31;100.00;100251.84;4968904;28;19929;-74
2023/09/18 07:29:13;;;;;;;;;;;;;;;18.31;100.00;100258.97;4968450;28;19929;-74
2023/09/18 07:31:40;;;;;;;;;;;;;;;18.29;100.00;100261.72;4967540;28;20209;-74
2023/09/18 07:34:05;;;;;;;;;;;;;;;18.28;100.00;100257.41;4966941;28;19910;-74
2023/09/18 07:36:30;;;;;;;;;;;;;;;18.29;100.00;100264.38;4974080;28;20195;-74
2023/09/18 07:38:56;;;;;;;;;;;;;;;18.29;100.00;100263.56;4974707;28;20265;-74
2023/09/18 07:41:22;;;;;;;;;;;;;;;18.27;100.00;100273.44;4975844;28;20138;-74
2023/09/18 07:43:47;;;;;;;;;;;;;;;18.27;100.00;100273.44;4965114;28;19918;-74
2023/09/18 07:46:13;;;;;;;;;;;;;;;18.27;100.00;100276.09;4971272;28;20209;-74
2023/09/18 07:48:38;;;;;;;;;;;;;;;18.27;100.00;100273.44;4963729;28;19922;-74
2023/09/18 07:51:03;;;;;;;;;;;;;;;18.27;100.00;100278.75;4963595;28;19928;-74
2023/09/18 07:53:28;;;;;;;;;;;;;;;18.30;100.00;100275.81;4964787;28;19968;-74
2023/09/18 07:55:58;;;;;;;;;;;;;;;18.30;100.00;100289.06;4969867;28;20155;-74
2023/09/18 07:58:27;;;;;;;;;;;;;;;18.31;100.00;100285.47;4974859;28;19961;-74
2023/09/18 08:00:53;;;;;;;;;;;;;;;18.31;100.00;100285.47;4971391;28;20330;-74
2023/09/18 08:03:19;;;;;;;;;;;;;;;18.31;100.00;100290.75;4966874;28;19953;-74
2023/09/18 08:05:44;;;;;;;;;;;;;;;18.31;100.00;100286.28;4966478;28;20243;-74
2023/09/18 08:08:10;;;;;;;;;;;;;;;18.32;100.00;100295.94;4970588;28;19946;-74
2023/09/18 08:10:37;;;;;;;;;;;;;;;18.37;100.00;100306.16;4972311;28;19925;-74
2023/09/18 08:13:03;;;;;;;;;;;;;;;18.41;100.00;100300.50;4965232;28;19922;-74
2023/09/18 08:15:29;;;;;;;;;;;;;;;18.41;100.00;100300.50;4962255;28;20177;-73
2023/09/18 08:17:54;;;;;;;;;;;;;;;18.47;100.00;100314.22;4963031;28;19961;-73
2023/09/18 08:20:19;;;;;;;;;;;;;;;18.50;100.00;100314.81;4969777;28;19984;-73
2023/09/18 08:22:45;;;;;;;;;;;;;;;18.51;100.00;100310.34;4974925;28;19918;-73
2023/09/18 08:25:11;;;;;;;;;;;;;;;18.56;100.00;100308.97;4960616;28;19972;-73
2023/09/18 08:27:40;;;;;;;;;;;;;;;18.56;100.00;100314.28;4975245;28;19925;-73
2023/09/18 08:30:05;;;;;;;;;;;;;;;18.58;100.00;100320.31;4967852;28;19918;-73
2023/09/18 08:32:33;;;;;;;;;;;;;;;18.58;100.00;100314.16;4975804;28;19918;-73
2023/09/18 08:34:59;;;;;;;;;;;;;;;18.58;100.00;100315.00;4958733;28;20156;-73
2023/09/18 08:37:24;;;;;;;;;;;;;;;18.59;100.00;100315.84;4971999;28;19945;-73
2023/09/18 08:39:49;;;;;;;;;;;;;;;18.58;100.00;100309.69;4966589;28;20137;-73
2023/09/18 08:42:15;;;;;;;;;;;;;;;18.58;100.00;100315.00;4975852;28;19918;-73
2023/09/18 08:44:42;;;;;;;;;;;;;;;18.58;100.00;100308.88;4959775;28;20018;-73
2023/09/18 08:47:08;;;;;;;;;;;;;;;18.55;100.00;100317.91;4975890;28;20051;-73
2023/09/18 08:49:34;;;;;;;;;;;;;;;18.55;100.00;100320.53;4967483;28;19918;-73
2023/09/18 08:51:59;;;;;;;;;;;;;;;18.52;100.00;100323.47;4975766;28;19956;-73
2023/09/18 08:54:24;;;;;;;;;;;;;;;18.52;100.00;100335.88;4974389;28;19941;-74
2023/09/18 08:56:50;;;;;;;;;;;;;;;18.46;100.00;100323.97;4974571;28;20117;-74
2023/09/18 08:59:16;;;;;;;;;;;;;;;18.47;100.00;100323.00;4967831;28;19920;-74
2023/09/18 09:01:41;;;;;;;;;;;;;;;18.46;100.00;100333.72;4974893;28;19933;-73
2023/09/18 09:04:06;;;;;;;;;;;;;;;18.47;100.00;100343.38;4965978;28;20183;-73
2023/09/18 09:06:32;;;;;;;;;;;;;;;18.42;100.00;100346.41;4978276;28;20199;-73
2023/09/18 09:08:57;;;;;;;;;;;;;;;18.47;100.00;100351.34;4976015;28;19929;-74
2023/09/18 09:11:22;;;;;;;;;;;;;;;18.47;100.00;100349.50;4978391;28;19949;-74
2023/09/18 09:14:07;;;;;;;;;;;;;;;18.45;100.00;100347.97;4976825;28;20209;-74
2023/09/18 09:16:33;;;;;;;;;;;;;;;18.44;100.00;100359.53;4979197;28;19917;-74
2023/09/18 09:18:58;;;;;;;;;;;;;;;18.41;100.00;100347.38;4975841;28;20098;-74
2023/09/18 09:21:38;;;;;;;;;;;;;;;18.43;100.00;100353.41;4978858;28;19933;-74
2023/09/18 09:24:03;;;;;;;;;;;;;;;18.43;100.00;100356.03;4974939;28;19918;-73
2023/09/18 09:26:29;;;;;;;;;;;;;;;18.46;100.00;100350.47;4978315;28;19941;-73
2023/09/18 09:28:55;;;;;;;;;;;;;;;18.49;100.00;100352.03;4973508;28;19918;-73
2023/09/18 09:31:28;;;;;;;;;;;;;;;18.46;100.00;100345.16;4962514;28;19926;-73
2023/09/18 09:33:54;;;;;;;;;;;;;;;18.48;100.00;100364.47;4967686;28;19940;-74
2023/09/18 09:36:20;;;;;;;;;;;;;;;18.49;100.00;100355.53;4972120;28;20323;-73
2023/09/18 09:38:45;;;;;;;;;;;;;;;18.53;100.00;100341.03;4968099;28;20347;-74
2023/09/18 09:41:14;;;;;;;;;;;;;;;18.57;100.00;100355.75;4969762;28;20191;-73
2023/09/18 09:43:41;;;;;;;;;;;;;;;18.63;100.00;100342.94;4968068;28;20197;-73
2023/09/18 09:46:08;;;;;;;;;;;;;;;18.66;100.00;100351.47;4970114;28;20001;-73
2023/09/18 09:48:33;;;;;;;;;;;;;;;18.67;100.00;100355.84;4972643;28;20090;-73
2023/09/18 09:51:00;;;;;;;;;;;;;;;18.76;100.00;100357.72;4969957;28;19925;-73
2023/09/18 09:53:48;;;;;;;;;;;;;;;18.82;100.00;100348.44;4969052;28;19922;-73
2023/09/18 09:56:14;;;;;;;;;;;;;;;18.88;100.00;100355.06;4973591;28;19949;-73
2023/09/18 09:58:43;;;;;;;;;;;;;;;18.97;100.00;100365.75;4970543;28;20228;-73
2023/09/18 10:01:11;;;;;;;;;;;;;;;19.03;100.00;100368.84;4976681;28;20036;-73
2023/09/18 10:03:37;;;;;;;;;;;;;;;19.09;100.00;100363.03;4975094;28;20187;-73
2023/09/18 10:06:04;;;;;;;;;;;;;;;19.11;100.00;100369.06;4975823;28;19989;-73
2023/09/18 10:08:30;;;;;;;;;;;;;;;19.12;100.00;100370.75;4975027;28;19982;-73
2023/09/18 10:10:58;;;;;;;;;;;;;;;19.08;100.00;100356.91;4973816;28;19985;-73
2023/09/18 10:13:29;;;;;;;;;;;;;;;19.10;100.00;100359.41;4968861;28;19914;-73
2023/09/18 10:15:56;;;;;;;;;;;;;;;19.09;100.00;100371.84;4967495;28;19952;-73
2023/09/18 10:18:26;;;;;;;;;;;;;;;19.09;100.00;100363.03;4969626;28;19929;-73
2023/09/18 10:20:57;;;;;;;;;;;;;;;19.08;100.00;100361.34;4973780;28;20164;-73
2023/09/18 10:23:34;;;;;;;;;;;;;;;19.09;100.00;100358.56;4971179;28;19918;-73
2023/09/18 10:26:03;;;;;;;;;;;;;;;19.13;100.00;100353.84;4970542;28;19917;-73
2023/09/18 10:28:30;;;;;;;;;;;;;;;19.19;100.00;100361.28;4966866;28;19921;-73
2023/09/18 10:30:56;;;;;;;;;;;;;;;19.23;100.00;100362.72;4966879;28;19922;-73
2023/09/18 10:33:21;;;;;;;;;;;;;;;19.24;100.00;100360.91;4972962;28;20098;-73
2023/09/18 10:35:47;;;;;;;;;;;;;;;19.24;100.00;100368.84;4970457;28;19925;-73
2023/09/18 10:38:14;;;;;;;;;;;;;;;19.23;100.00;100367.16;4977081;28;19937;-73
2023/09/18 10:40:40;;;;;;;;;;;;;;;19.17;100.00;100360.56;4975842;28;19918;-73
2023/09/18 10:43:09;;;;;;;;;;;;;;;19.19;100.00;100363.91;4975368;28;20247;-73
2023/09/18 10:45:35;;;;;;;;;;;;;;;19.18;100.00;100364.91;4975804;28;19916;-73
2023/09/18 10:48:00;;;;;;;;;;;;;;;19.22;100.00;100360.19;4976263;28;20197;-73
2023/09/18 10:50:26;;;;;;;;;;;;;;;19.20;100.00;100357.66;4976227;28;19921;-73
2023/09/18 10:52:52;;;;;;;;;;;;;;;19.25;100.00;100357.28;4975916;28;19949;-73
2023/09/18 10:55:17;;;;;;;;;;;;;;;19.29;100.00;100358.69;4976569;28;19948;-73
2023/09/18 10:57:52;;;;;;;;;;;;;;;19.27;100.00;100361.47;4976219;28;19925;-73
2023/09/18 11:00:22;;;;;;;;;;;;;;;19.29;100.00;100361.34;4975861;28;19925;-73
2023/09/18 11:02:48;;;;;;;;;;;;;;;19.29;100.00;100378.13;4976371;28;19924;-73
2023/09/18 11:05:14;;;;;;;;;;;;;;;19.33;100.00;100365.41;4975067;28;20171;-73
2023/09/18 11:07:39;;;;;;;;;;;;;;;19.34;100.00;100361.81;4975443;28;19988;-73
2023/09/18 11:10:26;;;;;;;;;;;;;;;19.40;100.00;100352.47;4975018;28;20201;-73
2023/09/18 11:12:52;;;;;;;;;;;;;;;19.46;100.00;100347.47;4961534;28;19985;-73
2023/09/18 11:15:31;;;;;;;;;;;;;;;19.45;100.00;100353.75;4973950;28;20000;-73
2023/09/18 11:18:02;;;;;;;;;;;;;;;19.45;100.00;100366.19;4975856;28;20125;-73
2023/09/18 11:20:28;;;;;;;;;;;;;;;19.44;100.00;100360.03;4975903;28;19917;-73
2023/09/18 11:22:58;;;;;;;;;;;;;;;19.47;100.00;100353.63;4973126;28;19914;-73
2023/09/18 11:25:31;;;;;;;;;;;;;;;19.49;100.00;100349.03;4968959;28;20213;-73
2023/09/18 11:27:56;;;;;;;;;;;;;;;19.53;100.00;100363.72;4973074;28;19914;-72
2023/09/18 11:30:23;;;;;;;;;;;;;;;19.56;98.42;100350.19;4969355;28;19937;-73
2023/09/18 11:32:49;;;;;;;;;;;;;;;19.61;99.00;100347.13;4971952;28;19924;-72
2023/09/18 11:35:17;;;;;;;;;;;;;;;19.63;99.49;100345.16;4971975;28;19937;-72
2023/09/18 11:37:43;;;;;;;;;;;;;;;19.62;100.00;100339.00;4967188;28;20245;-72
2023/09/18 11:40:27;;;;;;;;;;;;;;;19.56;100.00;100351.00;4968534;28;19918;-72
2023/09/18 11:43:11;;;;;;;;;;;;;;;19.56;99.35;100350.19;4966920;28;20098;-72
2023/09/18 11:45:37;;;;;;;;;;;;;;;19.58;99.47;100342.09;4967208;28;19920;-72
2023/09/18 11:48:03;;;;;;;;;;;;;;;19.60;99.62;100333.00;4968010;28;19922;-72
2023/09/18 11:50:30;;;;;;;;;;;;;;;19.66;100.00;100345.75;4972525;28;20494;-73
2023/09/18 11:52:56;;;;;;;;;;;;;;;19.64;100.00;100337.06;4972134;28;20266;-72
2023/09/18 11:55:22;;;;;;;;;;;;;;;19.68;100.00;100337.63;4970119;28;19914;-73
2023/09/18 11:57:48;;;;;;;;;;;;;;;19.72;99.28;100339.91;4966141;28;19957;-73
2023/09/18 12:00:25;;;;;;;;;;;;;;;19.82;99.31;100328.50;4967486;28;19918;-72
2023/09/18 12:02:50;;;;;;;;;;;;;;;19.84;98.88;100324.72;4968479;28;19925;-72
2023/09/18 12:05:16;;;;;;;;;;;;;;;19.84;97.31;100324.72;4965638;28;19919;-73
2023/09/18 12:07:45;;;;;;;;;;;;;;;19.87;96.99;100319.16;4968152;28;19981;-72
2023/09/18 12:10:16;;;;;;;;;;;;;;;19.90;97.93;100316.22;4969062;28;19953;-72
2023/09/18 12:12:42;;;;;;;;;;;;;;;19.93;98.35;100307.13;4957332;28;19906;-73
2023/09/18 12:15:10;;;;;;;;;;;;;;;19.96;98.11;100317.50;4975751;28;20279;-72
2023/09/18 12:17:35;;;;;;;;;;;;;;;20.02;96.11;100324.09;4975040;28;20251;-72
2023/09/18 12:20:01;;;;;;;;;;;;;;;20.04;95.77;100325.63;4973424;28;19914;-72
2023/09/18 12:22:31;;;;;;;;;;;;;;;20.07;96.02;100320.03;4973416;28;19921;-72
2023/09/18 12:25:13;;;;;;;;;;;;;;;20.09;95.47;100319.91;4974386;28;19918;-73